Time;durP1;ratioP1;P1;durP2;ratioP2;P2;SDS_P1;SDS_P2;PMS_P1;PMS_P2;Temp;Humidity;BMP_temperature;BMP_pressure;BME280_temperature;BME280_humidity;BME280_pressure;Samples;Min_cycle;Max_cycle;Signal;HPM_P1;HPM_P2
2023/08/28 00:01:01;;;;;;;0.00;0.00;;;;;;;;;;5137064;27;20031;-80
2023/08/28 00:03:26;;;;;;;0.00;0.00;;;;;;;;;;5135233;27;20031;-80
2023/08/28 00:05:52;;;;;;;0.00;0.00;;;;;;;;;;5101810;27;20030;-80
2023/08/28 00:08:17;;;;;;;0.00;0.00;;;;;;;;;;5135270;27;20058;-80
2023/08/28 00:10:43;;;;;;;0.00;0.00;;;;;;;;;;5136535;27;20459;-80
2023/08/28 00:13:08;;;;;;;0.00;0.00;;;;;;;;;;5135220;27;20045;-80
2023/08/28 00:15:34;;;;;;;0.00;0.00;;;;;;;;;;5136317;27;20360;-80
2023/08/28 00:17:59;;;;;;;0.00;0.00;;;;;;;;;;5134877;27;20027;-80
2023/08/28 00:20:24;;;;;;;0.00;0.00;;;;;;;;;;5136531;27;20023;-80
2023/08/28 00:22:50;;;;;;;0.00;0.00;;;;;;;;;;5135377;27;20159;-80
2023/08/28 00:25:15;;;;;;;0.00;0.00;;;;;;;;;;5136351;27;20438;-81
2023/08/28 00:27:41;;;;;;;0.00;0.00;;;;;;;;;;5134900;27;20045;-80
2023/08/28 00:30:07;;;;;;;0.00;0.00;;;;;;;;;;5135059;27;20099;-80
2023/08/28 00:32:34;;;;;;;0.00;0.00;;;;;;;;;;5134597;27;20030;-81
2023/08/28 00:34:59;;;;;;;0.00;0.00;;;;;;;;;;5136344;27;20432;-80
2023/08/28 00:37:24;;;;;;;0.00;0.00;;;;;;;;;;5134776;27;20035;-80
2023/08/28 00:39:50;;;;;;;0.00;0.00;;;;;;;;;;5134969;27;20034;-80
2023/08/28 00:42:15;;;;;;;0.00;0.00;;;;;;;;;;5134337;27;20046;-80
2023/08/28 00:44:41;;;;;;;0.00;0.00;;;;;;;;;;5135529;27;20035;-80
2023/08/28 00:47:07;;;;;;;0.00;0.00;;;;;;;;;;5135305;27;20428;-80
2023/08/28 00:49:33;;;;;;;0.00;0.00;;;;;;;;;;5117115;27;20041;-81
2023/08/28 00:51:58;;;;;;;0.00;0.00;;;;;;;;;;5117413;27;20423;-81
2023/08/28 00:54:24;;;;;;;0.00;0.00;;;;;;;;;;5117484;27;20483;-80
2023/08/28 00:56:49;;;;;;;0.00;0.00;;;;;;;;;;5135872;27;20027;-80
2023/08/28 00:59:15;;;;;;;0.00;0.00;;;;;;;;;;5117071;27;20052;-80
2023/08/28 01:01:41;;;;;;;0.00;0.00;;;;;;;;;;5117889;27;20030;-80
2023/08/28 01:04:06;;;;;;;0.00;0.00;;;;;;;;;;5117139;27;20035;-81
2023/08/28 01:06:48;;;;;;;0.00;0.00;;;;;;;;;;5134848;27;20019;-81
2023/08/28 01:09:44;;;;;;;0.00;0.00;;;;;;;;;;5117573;27;20019;-81
2023/08/28 01:12:25;;;;;;;0.00;0.00;;;;;;;;;;5134449;27;20027;-81
2023/08/28 01:15:01;;;;;;;0.08;0.00;;;;;;;;;;5134096;27;20347;-81
2023/08/28 01:17:26;;;;;;;0.00;0.00;;;;;;;;;;5134239;27;20026;-82
2023/08/28 01:19:52;;;;;;;0.00;0.00;;;;;;;;;;5117378;27;20441;-81
2023/08/28 01:22:25;;;;;;;0.00;0.00;;;;;;;;;;5134286;27;20357;-80
2023/08/28 01:24:52;;;;;;;0.00;0.00;;;;;;;;;;5117393;27;20035;-81
2023/08/28 01:27:20;;;;;;;0.00;0.00;;;;;;;;;;5116972;27;20037;-80
2023/08/28 01:29:46;;;;;;;0.00;0.00;;;;;;;;;;5133566;27;20103;-80
2023/08/28 01:32:11;;;;;;;0.00;0.00;;;;;;;;;;5133847;27;20030;-80
2023/08/28 01:34:37;;;;;;;0.00;0.00;;;;;;;;;;5133860;27;20031;-81
2023/08/28 01:37:10;;;;;;;0.00;0.00;;;;;;;;;;5134235;27;20031;-81
2023/08/28 01:39:40;;;;;;;0.00;0.00;;;;;;;;;;5117900;28;20023;-82
2023/08/28 01:42:05;;;;;;;;;;;;;;;;;;5117625;28;20031;-81
2023/08/28 01:44:31;;;;;;;0.00;0.00;;;;;;;;;;5133851;28;20249;-81
2023/08/28 01:46:56;;;;;;;0.00;0.00;;;;;;;;;;5116906;28;20452;-81
2023/08/28 01:49:27;;;;;;;0.00;0.00;;;;;;;;;;5116731;28;20031;-82
2023/08/28 01:51:52;;;;;;;0.00;0.00;;;;;;;;;;5135289;27;20432;-81
2023/08/28 01:54:17;;;;;;;0.00;0.00;;;;;;;;;;5134887;27;20035;-81
2023/08/28 01:56:43;;;;;;;0.00;0.00;;;;;;;;;;5133700;28;20023;-81
2023/08/28 01:59:08;;;;;;;0.00;0.00;;;;;;;;;;5100660;27;20027;-81
2023/08/28 02:01:34;;;;;;;0.00;0.00;;;;;;;;;;5137912;27;20042;-81
2023/08/28 02:04:00;;;;;;;0.00;0.00;;;;;;;;;;5138185;27;20023;-82
2023/08/28 02:06:25;;;;;;;0.00;0.00;;;;;;;;;;5139000;27;20415;-81
2023/08/28 02:08:51;;;;;;;0.00;0.00;;;;;;;;;;5138327;27;20084;-82
2023/08/28 02:11:17;;;;;;;0.00;0.00;;;;;;;;;;5120552;27;20062;-82
2023/08/28 02:13:42;;;;;;;0.00;0.00;;;;;;;;;;5120356;27;20031;-81
2023/08/28 02:16:08;;;;;;;0.00;0.00;;;;;;;;;;5138814;27;20027;-81
2023/08/28 02:18:33;;;;;;;0.10;0.00;;;;;;;;;;5137820;27;20113;-82
2023/08/28 02:20:58;;;;;;;0.00;0.00;;;;;;;;;;5137598;27;20034;-81
2023/08/28 02:23:26;;;;;;;0.00;0.00;;;;;;;;;;5138642;27;20027;-80
2023/08/28 02:25:51;;;;;;;0.00;0.00;;;;;;;;;;5120638;27;20029;-81
2023/08/28 02:28:18;;;;;;;0.00;0.00;;;;;;;;;;5119769;27;20043;-81
2023/08/28 02:30:45;;;;;;;0.00;0.00;;;;;;;;;;5120404;27;20027;-81
2023/08/28 02:33:11;;;;;;;0.00;0.00;;;;;;;;;;5137335;27;20080;-81
2023/08/28 02:35:36;;;;;;;0.00;0.00;;;;;;;;;;5137267;27;20031;-81
2023/08/28 02:38:02;;;;;;;0.00;0.00;;;;;;;;;;5119958;27;20023;-80
2023/08/28 02:40:29;;;;;;;0.00;0.00;;;;;;;;;;5139146;27;20047;-81
2023/08/28 02:42:55;;;;;;;0.13;0.00;;;;;;;;;;5119812;27;20375;-81
2023/08/28 02:45:20;;;;;;;0.00;0.00;;;;;;;;;;5138170;27;20031;-80
2023/08/28 02:47:46;;;;;;;0.00;0.00;;;;;;;;;;5136991;27;20027;-80
2023/08/28 02:50:11;;;;;;;0.00;0.00;;;;;;;;;;5138357;27;20035;-81
2023/08/28 02:52:37;;;;;;;0.00;0.00;;;;;;;;;;5119833;27;20015;-80
2023/08/28 02:55:02;;;;;;;0.00;0.00;;;;;;;;;;5119923;27;20497;-81
2023/08/28 02:57:28;;;;;;;0.00;0.00;;;;;;;;;;5154009;27;20019;-80
2023/08/28 02:59:53;;;;;;;0.00;0.00;;;;;;;;;;5137070;27;20035;-80
2023/08/28 03:02:19;;;;;;;0.00;0.00;;;;;;;;;;5137843;27;20024;-80
2023/08/28 03:04:44;;;;;;;0.00;0.00;;;;;;;;;;5136567;27;20168;-80
2023/08/28 03:07:10;;;;;;;0.00;0.00;;;;;;;;;;5136546;27;20083;-80
2023/08/28 03:09:35;;;;;;;0.00;0.00;;;;;;;;;;5119613;27;20031;-80
2023/08/28 03:12:01;;;;;;;0.00;0.00;;;;;;;;;;5118530;27;20031;-80
2023/08/28 03:14:26;;;;;;;0.00;0.00;;;;;;;;;;5137988;27;20023;-79
2023/08/28 03:16:52;;;;;;;0.00;0.00;;;;;;;;;;5136402;27;20353;-79
2023/08/28 03:19:17;;;;;;;0.00;0.00;;;;;;;;;;5136349;27;20398;-81
2023/08/28 03:21:42;;;;;;;0.00;0.00;;;;;;;;;;5136300;27;20118;-81
2023/08/28 03:24:08;;;;;;;0.00;0.00;;;;;;;;;;5137088;27;20118;-81
2023/08/28 03:26:33;;;;;;;0.00;0.00;;;;;;;;;;5137786;27;20363;-81
2023/08/28 03:29:00;;;;;;;0.00;0.00;;;;;;;;;;5136499;27;20043;-81
2023/08/28 03:31:27;;;;;;;0.00;0.00;;;;;;;;;;5119277;27;20027;-81
2023/08/28 03:33:52;;;;;;;0.00;0.00;;;;;;;;;;5119215;27;20019;-81
2023/08/28 03:36:18;;;;;;;0.00;0.00;;;;;;;;;;5136283;27;20069;-81
2023/08/28 03:38:43;;;;;;;0.00;0.00;;;;;;;;;;5118644;27;20072;-81
2023/08/28 03:41:09;;;;;;;0.00;0.00;;;;;;;;;;5136186;27;20072;-80
2023/08/28 03:43:34;;;;;;;0.00;0.00;;;;;;;;;;5118729;27;20023;-80
2023/08/28 03:46:00;;;;;;;0.00;0.00;;;;;;;;;;5136161;27;20114;-81
2023/08/28 03:48:25;;;;;;;0.00;0.00;;;;;;;;;;5119063;27;20088;-81
2023/08/28 03:50:51;;;;;;;0.00;0.00;;;;;;;;;;5137058;27;20034;-81
2023/08/28 03:53:16;;;;;;;0.00;0.00;;;;;;;;;;5135508;27;20031;-81
2023/08/28 03:55:41;;;;;;;0.00;0.00;;;;;;;;;;5135798;27;20035;-80
2023/08/28 03:58:07;;;;;;;0.10;0.00;;;;;;;;;;5135544;27;20039;-81
2023/08/28 04:00:32;;;;;;;0.00;0.00;;;;;;;;;;5118690;27;20043;-80
2023/08/28 04:02:58;;;;;;;0.00;0.00;;;;;;;;;;5118984;27;20031;-81
2023/08/28 04:05:24;;;;;;;0.00;0.00;;;;;;;;;;5135456;27;20087;-81
2023/08/28 04:07:50;;;;;;;0.00;0.00;;;;;;;;;;5101102;27;20027;-80
2023/08/28 04:10:15;;;;;;;0.00;0.00;;;;;;;;;;5135487;27;20038;-81
2023/08/28 04:12:41;;;;;;;0.00;0.00;;;;;;;;;;5135425;27;20031;-81
2023/08/28 04:15:09;;;;;;;0.00;0.00;;;;;;;;;;5101415;27;20028;-81
2023/08/28 04:17:35;;;;;;;0.00;0.00;;;;;;;;;;5135686;27;20432;-81
2023/08/28 04:20:08;;;;;;;0.00;0.00;;;;;;;;;;5118104;27;20023;-81
2023/08/28 04:22:34;;;;;;;0.00;0.00;;;;;;;;;;5100385;28;20027;-81
2023/08/28 04:25:00;;;;;;;0.00;0.00;;;;;;;;;;5135165;27;20171;-81
2023/08/28 04:27:26;;;;;;;0.00;0.00;;;;;;;;;;5135151;27;20083;-80
2023/08/28 04:29:51;;;;;;;0.00;0.00;;;;;;;;;;5136193;27;20472;-81
2023/08/28 04:32:16;;;;;;;0.00;0.00;;;;;;;;;;5134968;27;20495;-82
2023/08/28 04:34:43;;;;;;;0.00;0.00;;;;;;;;;;5117747;27;20122;-82
2023/08/28 04:37:08;;;;;;;0.00;0.00;;;;;;;;;;5100700;27;20126;-82
2023/08/28 04:39:34;;;;;;;0.00;0.00;;;;;;;;;;5134825;27;20055;-81
2023/08/28 04:41:59;;;;;;;0.00;0.00;;;;;;;;;;5134852;27;20032;-81
2023/08/28 04:44:25;;;;;;;0.00;0.00;;;;;;;;;;5134846;27;20042;-81
2023/08/28 04:46:50;;;;;;;0.00;0.00;;;;;;;;;;5117805;27;20137;-80
2023/08/28 04:49:16;;;;;;;0.00;0.00;;;;;;;;;;5135243;27;20110;-80
2023/08/28 04:51:42;;;;;;;0.00;0.00;;;;;;;;;;5136013;27;20513;-81
2023/08/28 04:54:07;;;;;;;0.00;0.00;;;;;;;;;;5117433;27;20031;-81
2023/08/28 04:56:32;;;;;;;0.00;0.00;;;;;;;;;;5134540;27;20019;-81
2023/08/28 04:58:58;;;;;;;0.00;0.00;;;;;;;;;;5117635;27;20031;-81
2023/08/28 05:01:24;;;;;;;0.05;0.00;;;;;;;;;;5117472;27;20015;-81
2023/08/28 05:03:49;;;;;;;0.00;0.00;;;;;;;;;;5117512;27;20059;-81
2023/08/28 05:06:15;;;;;;;0.00;0.00;;;;;;;;;;5134280;27;20425;-81
2023/08/28 05:08:40;;;;;;;0.00;0.00;;;;;;;;;;5135311;27;20016;-81
2023/08/28 05:11:05;;;;;;;0.00;0.00;;;;;;;;;;5134329;27;20031;-80
2023/08/28 05:13:31;;;;;;;0.00;0.00;;;;;;;;;;5135648;27;20034;-81
2023/08/28 05:15:56;;;;;;;0.00;0.00;;;;;;;;;;5134141;27;20029;-81
2023/08/28 05:18:22;;;;;;;0.00;0.00;;;;;;;;;;5134147;27;20019;-81
2023/08/28 05:20:47;;;;;;;0.03;0.00;;;;;;;;;;5133876;27;20019;-80
2023/08/28 05:23:13;;;;;;;0.10;0.10;;;;;;;;;;5135257;27;20072;-80
2023/08/28 05:25:38;;;;;;;0.00;0.00;;;;;;;;;;5133998;27;20030;-81
2023/08/28 05:28:04;;;;;;;0.00;0.00;;;;;;;;;;5133663;27;20031;-81
2023/08/28 05:30:29;;;;;;;0.00;0.00;;;;;;;;;;5135124;27;20373;-80
2023/08/28 05:32:55;;;;;;;0.03;0.00;;;;;;;;;;5134427;27;20035;-82
2023/08/28 05:35:20;;;;;;;0.00;0.00;;;;;;;;;;5134591;27;20027;-81
2023/08/28 05:37:46;;;;;;;0.00;0.00;;;;;;;;;;5133980;27;20051;-81
2023/08/28 05:40:14;;;;;;;0.00;0.00;;;;;;;;;;5135202;27;20034;-81
2023/08/28 05:42:43;;;;;;;0.00;0.00;;;;;;;;;;5133921;28;20019;-79
2023/08/28 05:45:09;;;;;;;0.00;0.00;;;;;;;;;;5117324;28;20168;-79
2023/08/28 05:47:36;;;;;;;0.00;0.00;;;;;;;;;;5135004;27;20147;-79
2023/08/28 05:50:03;;;;;;;0.00;0.00;;;;;;;;;;5133515;28;20309;-79
2023/08/28 05:52:28;;;;;;;0.00;0.00;;;;;;;;;;5133772;28;20023;-80
2023/08/28 05:54:54;;;;;;;0.00;0.00;;;;;;;;;;5133826;28;20027;-80
2023/08/28 05:57:19;;;;;;;0.00;0.00;;;;;;;;;;5133952;28;20122;-80
2023/08/28 05:59:45;;;;;;;0.00;0.00;;;;;;;;;;5133842;28;20023;-80
2023/08/28 06:02:10;;;;;;;0.00;0.00;;;;;;;;;;5116490;28;20034;-80
2023/08/28 06:04:36;;;;;;;0.00;0.00;;;;;;;;;;5134525;27;20164;-81
2023/08/28 06:07:01;;;;;;;0.00;0.00;;;;;;;;;;5133500;28;20374;-80
2023/08/28 06:09:27;;;;;;;0.00;0.00;;;;;;;;;;5116525;28;20103;-81
2023/08/28 06:11:52;;;;;;;0.00;0.00;;;;;;;;;;5133618;28;20092;-81
2023/08/28 06:14:18;;;;;;;0.10;0.10;;;;;;;;;;5116828;28;20027;-80
2023/08/28 06:16:43;;;;;;;0.00;0.00;;;;;;;;;;5116867;28;20369;-82
2023/08/28 06:19:09;;;;;;;0.00;0.00;;;;;;;;;;5133362;28;20105;-81
2023/08/28 06:21:34;;;;;;;0.10;0.10;;;;;;;;;;5116402;28;20031;-81
2023/08/28 06:24:00;;;;;;;0.00;0.00;;;;;;;;;;5134008;28;20034;-81
2023/08/28 06:26:25;;;;;;;0.00;0.00;;;;;;;;;;5151066;27;20468;-81
2023/08/28 06:28:51;;;;;;;0.08;0.08;;;;;;;;;;5133376;28;20059;-80
2023/08/28 06:31:16;;;;;;;0.00;0.00;;;;;;;;;;5133560;28;20023;-81
2023/08/28 06:33:42;;;;;;;0.00;0.00;;;;;;;;;;5133373;28;20027;-81
2023/08/28 06:36:08;;;;;;;0.10;0.10;;;;;;;;;;5133409;28;20019;-81
2023/08/28 06:38:33;;;;;;;0.00;0.00;;;;;;;;;;5116322;28;20023;-81
2023/08/28 06:41:00;;;;;;;0.10;0.10;;;;;;;;;;5133354;28;20023;-81
2023/08/28 06:43:27;;;;;;;0.00;0.00;;;;;;;;;;5133292;28;20033;-81
2023/08/28 06:45:53;;;;;;;0.00;0.00;;;;;;;;;;5134867;27;20062;-81
2023/08/28 06:48:18;;;;;;;0.10;0.10;;;;;;;;;;5136761;27;20119;-80
2023/08/28 06:50:44;;;;;;;0.10;0.10;;;;;;;;;;5138198;27;20031;-80
2023/08/28 06:53:09;;;;;;;0.10;0.10;;;;;;;;;;5138175;27;20031;-80
2023/08/28 06:55:36;;;;;;;0.00;0.00;;;;;;;;;;5136818;27;20034;-80
2023/08/28 06:58:01;;;;;;;0.10;0.10;;;;;;;;;;5136968;27;20034;-81
2023/08/28 07:00:26;;;;;;;0.10;0.10;;;;;;;;;;5136694;27;20384;-82
2023/08/28 07:02:52;;;;;;;0.10;0.10;;;;;;;;;;5136436;27;20388;-81
2023/08/28 07:05:17;;;;;;;0.10;0.10;;;;;;;;;;5119950;27;20461;-81
2023/08/28 07:07:43;;;;;;;0.10;0.10;;;;;;;;;;5137804;27;20444;-81
2023/08/28 07:10:08;;;;;;;0.05;0.05;;;;;;;;;;5119627;27;20368;-81
2023/08/28 07:12:34;;;;;;;0.10;0.10;;;;;;;;;;5119481;27;20073;-82
2023/08/28 07:15:26;;;;;;;0.10;0.10;;;;;;;;;;5119491;27;20023;-81
2023/08/28 07:17:52;;;;;;;0.10;0.10;;;;;;;;;;5139761;27;20035;-81
2023/08/28 07:20:17;;;;;;;0.00;0.00;;;;;;;;;;5136916;27;20032;-81
2023/08/28 07:22:43;;;;;;;0.10;0.10;;;;;;;;;;5136498;27;20035;-81
2023/08/28 07:25:08;;;;;;;0.10;0.10;;;;;;;;;;5136288;27;20031;-82
2023/08/28 07:27:34;;;;;;;0.10;0.10;;;;;;;;;;5119354;27;20027;-81
2023/08/28 07:30:02;;;;;;;0.10;0.10;;;;;;;;;;5137115;27;20051;-81
2023/08/28 07:32:29;;;;;;;0.10;0.10;;;;;;;;;;5101888;27;20087;-81
2023/08/28 07:34:55;;;;;;;0.10;0.10;;;;;;;;;;5136099;27;20019;-81
2023/08/28 07:37:20;;;;;;;0.10;0.10;;;;;;;;;;5136079;27;20118;-81
2023/08/28 07:39:46;;;;;;;0.10;0.10;;;;;;;;;;5119081;27;20176;-82
2023/08/28 07:42:11;;;;;;;0.10;0.10;;;;;;;;;;5136011;27;20166;-82
2023/08/28 07:44:37;;;;;;;0.10;0.10;;;;;;;;;;5135705;27;20068;-82
2023/08/28 07:47:05;;;;;;;0.10;0.10;;;;;;;;;;5135943;27;20031;-82
2023/08/28 07:49:31;;;;;;;0.10;0.10;;;;;;;;;;5119165;27;20031;-82
2023/08/28 07:51:57;;;;;;;0.10;0.10;;;;;;;;;;5101834;27;20027;-82
2023/08/28 07:54:23;;;;;;;0.10;0.10;;;;;;;;;;5136839;27;20029;-81
2023/08/28 07:56:48;;;;;;;0.10;0.10;;;;;;;;;;5118331;27;20062;-82
2023/08/28 07:59:13;;;;;;;0.10;0.10;;;;;;;;;;5135621;27;20114;-81
2023/08/28 08:01:39;;;;;;;0.13;0.13;;;;;;;;;;5152506;27;20357;-81
2023/08/28 08:04:04;;;;;;;0.10;0.10;;;;;;;;;;5118472;27;20039;-82
2023/08/28 08:06:30;;;;;;;0.20;0.20;;;;;;;;;;5135559;27;20029;-81
2023/08/28 08:08:55;;;;;;;0.17;0.17;;;;;;;;;;5118595;27;20408;-82
2023/08/28 08:11:20;;;;;;;0.10;0.10;;;;;;;;;;5118813;27;20379;-82
2023/08/28 08:13:46;;;;;;;0.20;0.20;;;;;;;;;;5136521;27;20463;-82
2023/08/28 08:16:11;;;;;;;0.15;0.15;;;;;;;;;;5135064;27;20060;-81
2023/08/28 08:18:37;;;;;;;0.10;0.10;;;;;;;;;;5118110;27;20480;-81
2023/08/28 08:21:03;;;;;;;0.15;0.15;;;;;;;;;;5152472;27;20500;-81
2023/08/28 08:23:28;;;;;;;0.10;0.10;;;;;;;;;;5134978;27;20353;-81
2023/08/28 08:25:56;;;;;;;0.20;0.20;;;;;;;;;;5136445;27;20034;-82
2023/08/28 08:28:21;;;;;;;;;;;;;;;;;;5118504;27;20030;-82
2023/08/28 08:30:47;;;;;;;0.10;0.10;;;;;;;;;;5117429;27;19991;-81
2023/08/28 08:33:12;;;;;;;0.10;0.10;;;;;;;;;;5134662;27;20272;-81
2023/08/28 08:35:38;;;;;;;0.10;0.10;;;;;;;;;;5134839;27;20027;-81
2023/08/28 08:38:03;;;;;;;0.10;0.10;;;;;;;;;;5134846;27;20449;-81
2023/08/28 08:40:29;;;;;;;0.10;0.10;;;;;;;;;;5134829;27;20027;-81
2023/08/28 08:42:54;;;;;;;0.10;0.10;;;;;;;;;;5117480;27;20076;-81
2023/08/28 08:45:30;;;;;;;0.10;0.10;;;;;;;;;;5117199;27;20034;-81
2023/08/28 08:47:57;;;;;;;0.10;0.10;;;;;;;;;;5101817;27;20031;-81
2023/08/28 08:50:23;;;;;;;0.10;0.10;;;;;;;;;;5117545;27;20372;-81
2023/08/28 08:52:49;;;;;;;0.10;0.10;;;;;;;;;;5134567;27;20023;-82
2023/08/28 08:55:41;;;;;;;0.10;0.10;;;;;;;;;;5135939;27;20080;-81
2023/08/28 08:58:13;;;;;;;0.10;0.10;;;;;;;;;;5127208;27;20039;-82
2023/08/28 09:00:39;;;;;;;0.20;0.20;;;;;;;;;;5117530;27;20022;-81
2023/08/28 09:03:05;;;;;;;0.10;0.10;;;;;;;;;;5117243;27;20023;-82
2023/08/28 09:05:31;;;;;;;0.10;0.10;;;;;;;;;;5100487;27;20126;-81
2023/08/28 09:07:57;;;;;;;0.10;0.10;;;;;;;;;;5134355;27;20168;-81
2023/08/28 09:10:22;;;;;;;0.20;0.20;;;;;;;;;;5116592;27;20023;-82
2023/08/28 09:12:49;;;;;;;0.17;0.17;;;;;;;;;;5135452;27;20035;-82
2023/08/28 09:15:15;;;;;;;0.10;0.10;;;;;;;;;;5135354;27;20023;-81
2023/08/28 09:17:40;;;;;;;0.10;0.10;;;;;;;;;;5100390;27;20145;-81
2023/08/28 09:20:19;;;;;;;0.10;0.10;;;;;;;;;;5117116;27;20034;-81
2023/08/28 09:22:49;;;;;;;0.00;0.00;;;;;;;;;;5134342;27;20034;-82
2023/08/28 09:25:15;;;;;;;0.00;0.00;;;;;;;;;;5100185;27;20043;-81
2023/08/28 09:27:42;;;;;;;0.00;0.00;;;;;;;;;;5134021;27;20023;-81
2023/08/28 09:30:09;;;;;;;0.10;0.10;;;;;;;;;;5135091;27;20047;-80
2023/08/28 09:32:34;;;;;;;0.00;0.00;;;;;;;;;;5135002;27;20050;-82
2023/08/28 09:35:00;;;;;;;0.10;0.10;;;;;;;;;;5117077;27;20436;-82
2023/08/28 09:37:26;;;;;;;0.10;0.10;;;;;;;;;;5134668;27;20026;-81
2023/08/28 09:39:55;;;;;;;0.10;0.10;;;;;;;;;;5117073;28;20024;-81
2023/08/28 09:42:23;;;;;;;0.10;0.10;;;;;;;;;;5133895;28;20027;-81
2023/08/28 09:44:49;;;;;;;0.10;0.10;;;;;;;;;;5133692;28;20027;-81
2023/08/28 09:47:25;;;;;;;0.20;0.20;;;;;;;;;;5133994;28;20054;-81
2023/08/28 09:49:52;;;;;;;0.20;0.20;;;;;;;;;;5100580;28;20337;-82
2023/08/28 09:52:26;;;;;;;0.20;0.20;;;;;;;;;;5133919;28;20368;-80
2023/08/28 09:55:05;;;;;;;0.10;0.10;;;;;;;;;;5117357;28;20121;-81
2023/08/28 09:57:31;;;;;;;0.10;0.10;;;;;;;;;;5134668;27;20409;-80
2023/08/28 09:59:57;;;;;;;0.10;0.10;;;;;;;;;;5133722;28;20075;-81
2023/08/28 10:02:22;;;;;;;0.00;0.00;;;;;;;;;;5134785;27;20031;-81
2023/08/28 10:04:50;;;;;;;0.00;0.00;;;;;;;;;;5116484;28;20027;-81
2023/08/28 10:07:16;;;;;;;0.00;0.00;;;;;;;;;;5116800;28;20446;-81
2023/08/28 10:09:43;;;;;;;0.00;0.00;;;;;;;;;;5116547;28;20028;-81
2023/08/28 10:12:09;;;;;;;0.00;0.00;;;;;;;;;;5133266;28;20108;-81
2023/08/28 10:14:34;;;;;;;0.00;0.00;;;;;;;;;;5116651;28;20518;-80
2023/08/28 10:17:04;;;;;;;0.00;0.00;;;;;;;;;;5116433;28;20475;-80
2023/08/28 10:19:42;;;;;;;0.00;0.00;;;;;;;;;;5116754;28;20080;-80
2023/08/28 10:22:08;;;;;;;0.00;0.00;;;;;;;;;;5137483;27;20023;-81
2023/08/28 10:24:35;;;;;;;0.00;0.00;;;;;;;;;;5137305;27;20487;-81
2023/08/28 10:27:00;;;;;;;0.00;0.00;;;;;;;;;;5120531;27;20027;-80
2023/08/28 10:29:26;;;;;;;0.00;0.00;;;;;;;;;;5137161;27;20054;-81
2023/08/28 10:31:51;;;;;;;0.00;0.00;;;;;;;;;;5137349;27;20023;-80
2023/08/28 10:34:17;;;;;;;0.00;0.00;;;;;;;;;;5120181;27;20044;-79
2023/08/28 10:36:42;;;;;;;0.00;0.00;;;;;;;;;;5120704;27;20030;-81
2023/08/28 10:39:08;;;;;;;0.00;0.00;;;;;;;;;;5103405;27;20437;-81
2023/08/28 10:41:33;;;;;;;0.00;0.00;;;;;;;;;;5120374;27;20037;-81
2023/08/28 10:43:59;;;;;;;0.00;0.00;;;;;;;;;;5136986;27;20037;-80
2023/08/28 10:46:27;;;;;;;0.00;0.00;;;;;;;;;;5136964;27;20065;-80
2023/08/28 10:48:59;;;;;;;0.00;0.00;;;;;;;;;;5120280;27;20106;-80
2023/08/28 10:51:33;;;;;;;0.00;0.00;;;;;;;;;;5103497;27;20035;-81
2023/08/28 10:54:01;;;;;;;0.00;0.00;;;;;;;;;;5136634;27;20444;-80
2023/08/28 10:56:30;;;;;;;0.00;0.00;;;;;;;;;;5136906;27;20380;-80
2023/08/28 10:59:15;;;;;;;;;;;;;;;;;;5120288;27;20444;-81
2023/08/28 11:01:50;;;;;;;0.00;0.00;;;;;;;;;;5137775;27;19915;-80
2023/08/28 11:04:16;;;;;;;0.00;0.00;;;;;;;;;;5136516;27;20031;-81
2023/08/28 11:06:45;;;;;;;0.00;0.00;;;;;;;;;;5136880;27;20027;-80
2023/08/28 11:09:28;;;;;;;;;;;;;;;;;;5137980;27;20030;-81
2023/08/28 11:11:59;;;;;;;0.00;0.00;;;;;;;;;;5137578;27;19963;-80
2023/08/28 11:14:32;;;;;;;0.00;0.00;;;;;;;;;;5137573;27;20027;-80
2023/08/28 11:17:15;;;;;;;0.00;0.00;;;;;;;;;;5119627;27;20080;-81
2023/08/28 11:19:55;;;;;;;0.00;0.00;;;;;;;;;;5136507;27;20048;-81
2023/08/28 11:22:42;;;;;;;0.00;0.00;;;;;;;;;;5137633;27;20027;-81
2023/08/28 11:25:11;;;;;;;0.00;0.00;;;;;;;;;;5137480;27;20034;-81
2023/08/28 11:27:37;;;;;;;0.00;0.00;;;;;;;;;;5137753;27;20023;-81
2023/08/28 11:30:06;;;;;;;0.00;0.00;;;;;;;;;;5136177;27;20054;-81
2023/08/28 11:32:32;;;;;;;0.00;0.00;;;;;;;;;;5135393;27;20088;-82
2023/08/28 11:34:59;;;;;;;0.00;0.00;;;;;;;;;;5136078;27;20031;-81
2023/08/28 11:37:31;;;;;;;0.00;0.00;;;;;;;;;;5137096;27;20035;-80
2023/08/28 11:39:57;;;;;;;0.00;0.00;;;;;;;;;;5135938;27;20035;-81
2023/08/28 11:42:25;;;;;;;0.00;0.00;;;;;;;;;;5119326;27;20049;-81
2023/08/28 11:44:51;;;;;;;0.00;0.00;;;;;;;;;;5135668;27;20046;-80
2023/08/28 11:47:23;;;;;;;0.00;0.00;;;;;;;;;;5135750;27;20023;-80
2023/08/28 11:49:49;;;;;;;0.00;0.00;;;;;;;;;;5136219;27;20408;-82
2023/08/28 11:52:18;;;;;;;0.00;0.00;;;;;;;;;;5118418;27;20134;-80
2023/08/28 11:54:43;;;;;;;;;;;;;;;;;;5136063;27;20027;-81
2023/08/28 11:57:09;;;;;;;0.00;0.00;;;;;;;;;;5135831;27;19911;-80
2023/08/28 11:59:34;;;;;;;0.00;0.00;;;;;;;;;;5135698;27;20284;-81
2023/08/28 12:02:00;;;;;;;0.00;0.00;;;;;;;;;;5153031;27;20038;-81
2023/08/28 12:04:25;;;;;;;0.00;0.00;;;;;;;;;;5118511;27;20038;-81
2023/08/28 12:06:50;;;;;;;0.00;0.00;;;;;;;;;;5117951;27;20063;-81
2023/08/28 12:09:16;;;;;;;0.00;0.00;;;;;;;;;;5118437;27;20019;-81
2023/08/28 12:11:41;;;;;;;0.00;0.00;;;;;;;;;;5135578;27;20023;-80
2023/08/28 12:14:16;;;;;;;0.00;0.00;;;;;;;;;;5118198;27;20100;-79
2023/08/28 12:16:42;;;;;;;0.00;0.00;;;;;;;;;;5135105;27;20035;-80
2023/08/28 12:19:07;;;;;;;0.00;0.00;;;;;;;;;;5118699;27;20466;-79
2023/08/28 12:21:34;;;;;;;0.00;0.00;;;;;;;;;;5134949;27;20035;-79
2023/08/28 12:24:00;;;;;;;0.00;0.00;;;;;;;;;;5118409;27;20034;-80
2023/08/28 12:26:25;;;;;;;0.00;0.00;;;;;;;;;;5118085;27;20031;-80
2023/08/28 12:28:52;;;;;;;0.00;0.00;;;;;;;;;;5135984;27;20388;-80
2023/08/28 12:31:27;;;;;;;0.00;0.00;;;;;;;;;;5118162;27;20027;-80
2023/08/28 12:33:54;;;;;;;0.00;0.00;;;;;;;;;;5134858;27;20437;-80
2023/08/28 12:36:19;;;;;;;0.00;0.00;;;;;;;;;;5136215;27;20027;-80
2023/08/28 12:38:46;;;;;;;0.00;0.00;;;;;;;;;;5136006;27;20042;-81
2023/08/28 12:41:12;;;;;;;0.00;0.00;;;;;;;;;;5134792;27;20027;-81
2023/08/28 12:43:38;;;;;;;0.00;0.00;;;;;;;;;;5134929;27;20034;-82
2023/08/28 12:46:03;;;;;;;0.00;0.00;;;;;;;;;;5135870;27;20027;-81
2023/08/28 12:48:29;;;;;;;0.00;0.00;;;;;;;;;;5134676;27;20027;-80
2023/08/28 12:50:54;;;;;;;0.00;0.00;;;;;;;;;;5134625;27;20126;-80
2023/08/28 12:53:20;;;;;;;0.00;0.00;;;;;;;;;;5134673;27;20030;-80
2023/08/28 12:55:45;;;;;;;0.00;0.00;;;;;;;;;;5117252;27;20435;-81
2023/08/28 12:58:11;;;;;;;0.00;0.00;;;;;;;;;;5117289;27;20091;-80
2023/08/28 13:00:36;;;;;;;0.00;0.00;;;;;;;;;;5134333;27;20023;-81
2023/08/28 13:03:03;;;;;;;0.00;0.00;;;;;;;;;;5117305;27;20493;-81
2023/08/28 13:05:28;;;;;;;0.00;0.00;;;;;;;;;;5134028;27;20039;-81
2023/08/28 13:07:54;;;;;;;0.00;0.00;;;;;;;;;;5117272;27;20031;-81
2023/08/28 13:10:19;;;;;;;0.00;0.00;;;;;;;;;;5117313;27;20084;-81
2023/08/28 13:12:45;;;;;;;0.00;0.00;;;;;;;;;;5116980;27;20015;-80
2023/08/28 13:15:10;;;;;;;0.00;0.00;;;;;;;;;;5117183;27;20034;-80
2023/08/28 13:17:35;;;;;;;0.00;0.00;;;;;;;;;;5134060;27;20026;-80
2023/08/28 13:20:01;;;;;;;0.00;0.00;;;;;;;;;;5133745;27;20410;-80
2023/08/28 13:22:27;;;;;;;0.00;0.00;;;;;;;;;;5134054;27;20520;-80
2023/08/28 13:24:53;;;;;;;0.00;0.00;;;;;;;;;;5135416;27;20455;-80
2023/08/28 13:27:18;;;;;;;0.00;0.00;;;;;;;;;;5135783;27;20062;-80
2023/08/28 13:29:44;;;;;;;0.00;0.00;;;;;;;;;;5134986;27;20038;-81
2023/08/28 13:32:09;;;;;;;0.00;0.00;;;;;;;;;;5117036;27;20448;-81
2023/08/28 13:34:34;;;;;;;0.00;0.00;;;;;;;;;;5133623;27;20068;-81
2023/08/28 13:37:03;;;;;;;0.00;0.00;;;;;;;;;;5135322;27;20027;-81
2023/08/28 13:39:28;;;;;;;0.00;0.00;;;;;;;;;;5133829;27;20463;-81
2023/08/28 13:41:54;;;;;;;0.00;0.00;;;;;;;;;;5116635;28;20035;-81
2023/08/28 13:44:19;;;;;;;0.00;0.00;;;;;;;;;;5134962;27;20031;-80
2023/08/28 13:46:45;;;;;;;0.00;0.00;;;;;;;;;;5134996;27;20027;-81
2023/08/28 13:49:10;;;;;;;0.00;0.00;;;;;;;;;;5135215;27;20061;-81
2023/08/28 13:51:36;;;;;;;0.00;0.00;;;;;;;;;;5133952;28;20453;-79
2023/08/28 13:54:01;;;;;;;0.00;0.00;;;;;;;;;;5133709;28;20486;-79
2023/08/28 13:56:27;;;;;;;0.00;0.00;;;;;;;;;;5119946;27;20083;-80
2023/08/28 13:58:52;;;;;;;0.00;0.00;;;;;;;;;;5137776;27;20031;-80
2023/08/28 14:01:18;;;;;;;0.00;0.00;;;;;;;;;;5137795;27;20080;-80
2023/08/28 14:03:43;;;;;;;0.00;0.00;;;;;;;;;;5137593;27;20360;-79
2023/08/28 14:06:09;;;;;;;0.00;0.00;;;;;;;;;;5137849;27;20531;-80
2023/08/28 14:08:34;;;;;;;0.00;0.00;;;;;;;;;;5120606;27;20029;-81
2023/08/28 14:11:06;;;;;;;0.00;0.00;;;;;;;;;;5137590;27;20037;-80
2023/08/28 14:13:33;;;;;;;0.00;0.00;;;;;;;;;;5137691;27;20027;-81
2023/08/28 14:15:58;;;;;;;0.00;0.00;;;;;;;;;;5137659;27;20027;-81
2023/08/28 14:18:24;;;;;;;0.00;0.00;;;;;;;;;;5120597;27;20553;-80
2023/08/28 14:20:51;;;;;;;0.00;0.00;;;;;;;;;;5138758;27;20023;-80
2023/08/28 14:23:17;;;;;;;0.00;0.00;;;;;;;;;;5120431;27;20022;-79
2023/08/28 14:25:42;;;;;;;0.00;0.00;;;;;;;;;;5137586;27;20038;-79
2023/08/28 14:28:08;;;;;;;0.00;0.00;;;;;;;;;;5120411;27;20023;-80
2023/08/28 14:30:34;;;;;;;0.00;0.00;;;;;;;;;;5137025;27;20035;-81
2023/08/28 14:32:59;;;;;;;0.00;0.00;;;;;;;;;;5137245;27;20051;-80
2023/08/28 14:35:24;;;;;;;0.00;0.00;;;;;;;;;;5138355;27;20427;-80
2023/08/28 14:37:50;;;;;;;0.00;0.00;;;;;;;;;;5119997;27;20038;-80
2023/08/28 14:40:15;;;;;;;0.00;0.00;;;;;;;;;;5136895;27;20038;-80
2023/08/28 14:42:43;;;;;;;0.00;0.00;;;;;;;;;;5137233;27;20102;-80